Time;durP1;ratioP1;P1;durP2;ratioP2;P2;SDS_P1;SDS_P2;PMS_P1;PMS_P2;Temp;Humidity;BMP_temperature;BMP_pressure;BME280_temperature;BME280_humidity;BME280_pressure;Samples;Min_cycle;Max_cycle;Signal;HPM_P1;HPM_P2
2023/07/25 00:00:31;;;;;;;5.70;2.20;;;;;;;12.48;100.00;99949.34;5093135;28;20054;-91
2023/07/25 00:02:56;;;;;;;4.45;2.30;;;;;;;12.51;100.00;99946.50;5093168;28;20497;-91
2023/07/25 00:05:21;;;;;;;9.73;2.10;;;;;;;12.52;100.00;99945.59;5086105;28;20032;-92
2023/07/25 00:07:47;;;;;;;2.95;1.30;;;;;;;12.54;100.00;99951.47;5071508;28;20032;-92
2023/07/25 00:10:13;;;;;;;4.90;2.00;;;;;;;12.53;100.00;99961.00;5072858;28;20593;-92
2023/07/25 00:12:38;;;;;;;5.07;1.67;;;;;;;12.52;100.00;99961.94;5088182;28;20020;-91
2023/07/25 00:15:04;;;;;;;10.27;2.17;;;;;;;12.52;100.00;99956.75;5072540;28;20103;-91
2023/07/25 00:17:30;;;;;;;2.95;1.88;;;;;;;12.45;100.00;99965.91;5072705;28;20017;-93
2023/07/25 00:19:56;;;;;;;4.65;2.42;;;;;;;12.45;100.00;99963.31;5070889;28;20079;-92
2023/07/25 00:22:21;;;;;;;6.05;2.50;;;;;;;12.45;100.00;99955.56;5071011;28;20032;-92
2023/07/25 00:24:47;;;;;;;5.22;2.55;;;;;;;12.46;100.00;99961.56;5071994;28;20434;-92
2023/07/25 00:27:12;;;;;;;4.55;2.28;;;;;;;12.46;100.00;99962.41;5072402;28;20028;-91
2023/07/25 00:29:37;;;;;;;10.13;2.38;;;;;;;12.43;100.00;99958.25;5072261;28;20021;-92
2023/07/25 00:32:03;;;;;;;3.03;2.22;;;;;;;12.40;100.00;99953.31;5071830;28;20023;-92
2023/07/25 00:34:28;;;;;;;6.88;2.40;;;;;;;12.40;100.00;99955.88;5070698;28;20051;-91
2023/07/25 00:36:54;;;;;;;4.40;2.30;;;;;;;12.41;100.00;99954.97;5083401;28;20032;-92
2023/07/25 00:39:19;;;;;;;4.10;2.20;;;;;;;12.40;100.00;99953.31;5091682;28;20057;-91
2023/07/25 00:41:45;;;;;;;4.28;1.88;;;;;;;12.43;100.00;99960.00;5092794;28;20457;-91
2023/07/25 00:44:10;;;;;;;6.22;2.22;;;;;;;12.40;100.00;99953.31;5091196;28;20233;-91
2023/07/25 00:46:35;;;;;;;3.65;2.05;;;;;;;12.41;100.00;99954.13;5092684;28;20032;-91
2023/07/25 00:49:01;;;;;;;2.40;1.95;;;;;;;12.41;100.00;99954.97;5091475;28;20093;-92
2023/07/25 00:51:27;;;;;;;4.45;1.83;;;;;;;12.31;100.00;99956.56;5090429;28;20063;-92
2023/07/25 00:53:53;;;;;;;5.10;1.90;;;;;;;12.34;100.00;99960.72;5092401;28;20106;-92
2023/07/25 00:56:19;;;;;;;4.13;1.75;;;;;;;12.31;100.00;99959.13;5093076;28;20466;-91
2023/07/25 00:58:46;;;;;;;4.40;1.95;;;;;;;12.32;100.00;99960.81;5092715;28;20043;-92
2023/07/25 01:01:11;;;;;;;2.95;1.60;;;;;;;12.25;100.00;99959.59;5090985;28;20046;-91
2023/07/25 01:03:38;;;;;;;2.95;1.52;;;;;;;12.22;100.00;99954.66;5092036;28;20470;-91
2023/07/25 01:06:08;;;;;;;5.05;2.17;;;;;;;12.20;100.00;99951.34;5075592;28;20025;-92
2023/07/25 01:08:33;;;;;;;3.75;2.03;;;;;;;12.18;100.00;99955.78;5071830;28;20024;-91
2023/07/25 01:10:59;;;;;;;4.72;2.15;;;;;;;12.15;100.00;99956.03;5072054;28;20038;-91
2023/07/25 01:13:24;;;;;;;6.35;2.00;;;;;;;12.18;100.00;99959.19;5070581;28;20056;-91
2023/07/25 01:15:51;;;;;;;2.88;2.00;;;;;;;12.08;100.00;99965.16;5070775;28;20032;-91
2023/07/25 01:18:17;;;;;;;5.10;2.17;;;;;;;12.08;100.00;99965.16;5070647;28;20029;-91
2023/07/25 01:20:43;;;;;;;5.20;1.85;;;;;;;12.06;100.00;99965.25;5085823;28;20099;-91
2023/07/25 01:23:10;;;;;;;4.20;2.00;;;;;;;12.01;100.00;99961.34;5091748;28;20055;-92
2023/07/25 01:25:36;;;;;;;6.05;1.95;;;;;;;11.98;100.00;99958.03;5091949;28;20027;-91
2023/07/25 01:28:01;;;;;;;3.05;1.70;;;;;;;11.92;100.00;99958.47;5092159;28;20020;-92
2023/07/25 01:30:27;;;;;;;6.60;2.00;;;;;;;11.86;100.00;99956.28;5077207;28;20021;-91
2023/07/25 01:32:54;;;;;;;6.00;2.00;;;;;;;11.87;100.00;99960.56;5071193;28;20112;-91
2023/07/25 01:35:20;;;;;;;2.50;1.88;;;;;;;11.87;100.00;99950.22;5071377;28;20146;-92
2023/07/25 01:37:45;;;;;;;4.72;2.22;;;;;;;11.92;100.00;99957.66;5071384;28;20021;-91
2023/07/25 01:40:11;;;;;;;3.15;2.28;;;;;;;11.83;100.00;99953.13;5070126;28;20029;-91
2023/07/25 01:42:36;;;;;;;5.53;2.00;;;;;;;11.83;100.00;99953.13;5074152;28;20091;-91
2023/07/25 01:45:02;;;;;;;7.75;2.67;;;;;;;11.71;100.00;99962.56;5075573;28;20040;-91
2023/07/25 01:47:28;;;;;;;5.38;2.17;;;;;;;11.68;100.00;99961.00;5075611;28;20054;-91
2023/07/25 01:49:53;;;;;;;2.58;1.58;;;;;;;11.66;100.00;99962.06;5086927;28;20035;-91
2023/07/25 01:52:19;;;;;;;4.47;2.17;;;;;;;11.66;100.00;99955.13;5095373;28;20028;-91
2023/07/25 01:54:45;;;;;;;3.38;2.28;;;;;;;11.64;100.00;99949.22;5095508;28;20386;-91
2023/07/25 01:57:10;;;;;;;5.70;2.47;;;;;;;11.66;100.00;99959.47;5095676;28;20016;-91
2023/07/25 01:59:36;;;;;;;2.97;1.90;;;;;;;11.60;100.00;99962.47;5095657;28;20056;-91
2023/07/25 02:02:01;;;;;;;3.17;2.15;;;;;;;11.59;100.00;99960.81;5094411;28;20023;-90
2023/07/25 02:04:26;;;;;;;4.25;1.88;;;;;;;11.69;100.00;99961.81;5083963;28;20028;-92
2023/07/25 02:06:52;;;;;;;3.38;1.70;;;;;;;11.61;100.00;99966.69;5075047;28;20029;-92
2023/07/25 02:09:17;;;;;;;2.58;2.00;;;;;;;11.55;100.00;99968.75;5074866;28;20098;-91
2023/07/25 02:11:43;;;;;;;3.67;1.95;;;;;;;11.52;100.00;99965.56;5073513;28;20020;-92
2023/07/25 02:14:08;;;;;;;3.80;1.50;;;;;;;11.53;100.00;99962.91;5074722;28;20103;-92
2023/07/25 02:16:36;;;;;;;5.85;2.45;;;;;;;11.50;100.00;99963.09;5074884;28;20025;-92
2023/07/25 02:19:02;;;;;;;3.45;1.98;;;;;;;11.46;100.00;99969.41;5073660;28;20124;-91
2023/07/25 02:21:28;;;;;;;5.75;2.30;;;;;;;11.43;100.00;99967.03;5075086;28;20051;-91
2023/07/25 02:23:53;;;;;;;4.43;2.10;;;;;;;11.43;100.00;99979.13;5074280;28;20059;-91
2023/07/25 02:26:19;;;;;;;5.93;2.05;;;;;;;11.34;100.00;99978.00;5074630;28;20027;-91
2023/07/25 02:28:44;;;;;;;4.97;2.17;;;;;;;11.36;100.00;99973.53;5074566;28;20024;-91
2023/07/25 02:31:09;;;;;;;3.85;1.98;;;;;;;11.31;100.00;99970.44;5074677;28;20097;-91
2023/07/25 02:33:35;;;;;;;2.22;1.60;;;;;;;11.26;100.00;99975.09;5072785;28;20033;-91
2023/07/25 02:36:00;;;;;;;4.10;2.10;;;;;;;11.23;100.00;99973.56;5074320;28;20025;-91
2023/07/25 02:38:25;;;;;;;5.82;1.80;;;;;;;11.20;100.00;99975.53;5074775;28;20394;-91
2023/07/25 02:40:51;;;;;;;3.22;1.98;;;;;;;11.15;100.00;99973.25;5073180;28;20443;-91
2023/07/25 02:43:16;;;;;;;2.88;1.70;;;;;;;11.16;100.00;99974.06;5074281;28;20021;-91
2023/07/25 02:45:41;;;;;;;3.53;1.85;;;;;;;11.11;100.00;99967.44;5074134;28;20030;-91
2023/07/25 02:48:07;;;;;;;3.35;1.67;;;;;;;11.03;100.00;99977.47;5074245;28;20028;-91
2023/07/25 02:50:32;;;;;;;2.38;1.35;;;;;;;11.02;100.00;99972.41;5089773;28;20052;-91
2023/07/25 02:52:57;;;;;;;4.28;1.75;;;;;;;11.02;100.00;99978.41;5074002;28;20036;-92
2023/07/25 02:55:23;;;;;;;6.35;1.70;;;;;;;10.97;100.00;99970.13;5074076;28;20466;-91
2023/07/25 02:57:48;;;;;;;3.10;2.00;;;;;;;10.87;100.00;99969.09;5072193;28;20554;-91
2023/07/25 03:00:14;;;;;;;5.43;1.77;;;;;;;10.93;100.00;99968.69;5074018;28;20028;-91
2023/07/25 03:02:39;;;;;;;2.55;1.50;;;;;;;10.87;100.00;99974.25;5074055;28;20029;-91
2023/07/25 03:05:05;;;;;;;1.98;1.50;;;;;;;10.93;100.00;99974.69;5073986;28;20035;-91
2023/07/25 03:07:30;;;;;;;4.13;1.52;;;;;;;10.81;100.00;99975.50;5073891;28;20029;-91
2023/07/25 03:09:56;;;;;;;4.53;1.90;;;;;;;10.80;100.00;99962.69;5073932;28;20315;-91
2023/07/25 03:12:21;;;;;;;4.65;1.65;;;;;;;10.80;100.00;99966.09;5089481;28;20043;-91
2023/07/25 03:14:46;;;;;;;3.22;1.63;;;;;;;10.67;100.00;99971.22;5073981;28;20063;-91
2023/07/25 03:17:12;;;;;;;4.13;1.40;;;;;;;10.63;100.00;99972.38;5073649;28;20039;-91
2023/07/25 03:19:37;;;;;;;3.10;1.60;;;;;;;10.54;100.00;99975.53;5072312;28;20025;-92
2023/07/25 03:22:02;;;;;;;4.40;1.73;;;;;;;10.50;100.00;99972.31;5073367;28;20095;-91
2023/07/25 03:24:28;;;;;;;2.58;1.58;;;;;;;10.50;100.00;99977.47;5073412;28;20462;-91
2023/07/25 03:26:53;;;;;;;2.50;1.52;;;;;;;10.37;100.00;99968.06;5073111;28;20052;-91
2023/07/25 03:29:18;;;;;;;1.80;1.60;;;;;;;10.37;100.00;99968.88;5089030;28;20024;-91
2023/07/25 03:31:44;;;;;;;3.67;1.52;;;;;;;10.33;100.00;99964.03;5073390;28;20247;-91
2023/07/25 03:34:09;;;;;;;1.67;1.40;;;;;;;10.26;100.00;99963.53;5088729;28;20020;-91
2023/07/25 03:36:34;;;;;;;2.65;1.40;;;;;;;10.31;100.00;99965.88;5088759;28;20032;-91
2023/07/25 03:39:00;;;;;;;3.67;1.80;;;;;;;10.28;100.00;99967.72;5073230;28;20021;-92
2023/07/25 03:41:25;;;;;;;2.13;1.30;;;;;;;10.23;100.00;99963.75;5076597;28;20063;-91
2023/07/25 03:43:50;;;;;;;3.13;1.70;;;;;;;10.20;100.00;99972.50;5093200;28;20439;-91
2023/07/25 03:46:16;;;;;;;3.05;1.60;;;;;;;10.11;100.00;99965.34;5093575;28;20024;-91
2023/07/25 03:48:41;;;;;;;5.25;1.60;;;;;;;10.06;100.00;99973.38;5091983;28;20500;-92
2023/07/25 03:51:06;;;;;;;3.13;1.25;;;;;;;10.00;100.00;99970.38;5093087;28;20482;-91
2023/07/25 03:53:32;;;;;;;2.60;1.30;;;;;;;10.01;100.00;99964.28;5093044;28;20502;-91
2023/07/25 03:55:57;;;;;;;3.40;1.50;;;;;;;10.05;100.00;99970.91;5090166;28;20109;-91
2023/07/25 03:58:22;;;;;;;2.60;1.60;;;;;;;9.99;100.00;99971.28;5072519;28;20024;-91
2023/07/25 04:00:48;;;;;;;1.73;1.63;;;;;;;10.01;100.00;99972.00;5073050;28;20308;-91
2023/07/25 04:03:13;;;;;;;4.07;1.40;;;;;;;9.94;100.00;99968.16;5072802;28;20036;-92
2023/07/25 04:05:39;;;;;;;3.83;1.58;;;;;;;10.02;100.00;99978.81;5071799;28;20021;-92
2023/07/25 04:08:04;;;;;;;8.05;1.85;;;;;;;9.78;100.00;99979.44;5072664;28;20031;-92
2023/07/25 04:10:30;;;;;;;3.40;1.50;;;;;;;9.89;100.00;99980.50;5072132;28;20048;-91
2023/07/25 04:12:55;;;;;;;1.65;1.42;;;;;;;9.84;100.00;99984.19;5071683;28;20119;-91
2023/07/25 04:15:20;;;;;;;3.10;1.10;;;;;;;9.86;100.00;99984.94;5071297;28;20051;-91
2023/07/25 04:17:46;;;;;;;2.05;1.33;;;;;;;9.83;100.00;99982.53;5071119;28;20032;-92
2023/07/25 04:20:11;;;;;;;4.65;1.27;;;;;;;9.83;100.00;99987.69;5072978;28;20033;-92
2023/07/25 04:22:38;;;;;;;3.75;1.48;;;;;;;9.75;100.00;99974.44;5070870;28;20123;-92
2023/07/25 04:25:03;;;;;;;6.53;2.00;;;;;;;9.79;100.00;99983.66;5072328;28;20052;-91
2023/07/25 04:27:31;;;;;;;3.70;1.52;;;;;;;9.79;100.00;99987.97;5071794;28;20040;-92
2023/07/25 04:29:56;;;;;;;1.45;1.35;;;;;;;9.78;100.00;99987.16;5071074;28;20382;-92
2023/07/25 04:32:22;;;;;;;3.63;1.40;;;;;;;9.84;100.00;99991.91;5072171;28;20039;-92
2023/07/25 04:34:47;;;;;;;3.72;1.38;;;;;;;9.95;100.00;99991.28;5072374;28;20024;-91
2023/07/25 04:37:13;;;;;;;4.15;1.38;;;;;;;9.92;100.00;99988.88;5070932;28;20029;-91
2023/07/25 04:39:38;;;;;;;2.40;1.17;;;;;;;9.95;100.00;100000.72;5072096;28;20101;-92
2023/07/25 04:42:04;;;;;;;2.95;1.15;;;;;;;10.01;100.00;100000.38;5071861;28;20032;-91
2023/07/25 04:44:29;;;;;;;4.05;1.50;;;;;;;9.98;100.00;100005.72;5071715;28;20065;-91
2023/07/25 04:46:54;;;;;;;2.42;1.38;;;;;;;10.02;100.00;99996.84;5072083;28;20112;-91
2023/07/25 04:49:20;;;;;;;2.50;1.15;;;;;;;10.04;100.00;99995.00;5071922;28;20058;-91
2023/07/25 04:51:45;;;;;;;2.53;1.20;;;;;;;10.06;100.00;99999.16;5072078;28;20024;-91
2023/07/25 04:54:10;;;;;;;2.90;1.38;;;;;;;10.03;100.00;100001.09;5071813;28;20397;-92
2023/07/25 04:56:36;;;;;;;3.22;1.75;;;;;;;10.00;100.00;99998.72;5072130;28;20436;-92
2023/07/25 04:59:01;;;;;;;2.40;1.60;;;;;;;10.00;100.00;100003.88;5071980;28;20127;-92
2023/07/25 05:01:27;;;;;;;6.22;1.58;;;;;;;9.96;100.00;100005.00;5073401;28;20027;-92
2023/07/25 05:03:52;;;;;;;3.97;1.65;;;;;;;9.95;100.00;100011.91;5071832;28;20042;-92
2023/07/25 05:06:17;;;;;;;2.75;1.85;;;;;;;9.97;100.00;100014.38;5070472;28;20482;-93
2023/07/25 05:08:43;;;;;;;4.68;2.03;;;;;;;10.00;100.00;100009.03;5070646;28;20021;-93
2023/07/25 05:11:08;;;;;;;3.90;1.92;;;;;;;9.99;100.00;100020.25;5071900;28;20017;-92
2023/07/25 05:13:33;;;;;;;6.30;1.77;;;;;;;10.03;100.00;100014.81;5070497;28;20052;-92
2023/07/25 05:15:59;;;;;;;2.70;1.85;;;;;;;10.07;100.00;100021.44;5073548;28;20099;-92
2023/07/25 05:18:24;;;;;;;4.22;1.92;;;;;;;10.11;100.00;100021.25;5086965;28;20029;-92
2023/07/25 05:20:49;;;;;;;3.72;2.00;;;;;;;10.06;100.00;100024.13;5076817;28;20025;-93
2023/07/25 05:23:15;;;;;;;5.55;2.08;;;;;;;10.09;100.00;100021.34;5078336;28;20471;-93
2023/07/25 05:25:40;;;;;;;3.83;2.03;;;;;;;10.20;100.00;100020.69;5079592;28;20588;-92
2023/07/25 05:28:06;;;;;;;2.25;1.83;;;;;;;10.20;100.00;100026.66;5083689;28;20076;-92
2023/07/25 05:30:31;;;;;;;4.70;2.72;;;;;;;10.38;100.00;100029.03;5094138;28;20031;-93
2023/07/25 05:32:57;;;;;;;5.10;2.00;;;;;;;10.48;100.00;100025.81;5094201;28;20119;-92
2023/07/25 05:35:22;;;;;;;2.38;1.90;;;;;;;10.60;100.00;100029.31;5076845;28;20036;-93
2023/07/25 05:37:48;;;;;;;4.25;2.40;;;;;;;10.61;100.00;100038.75;5076756;28;20024;-92
2023/07/25 05:40:13;;;;;;;3.20;2.00;;;;;;;10.68;100.00;100034.84;5078174;28;20065;-93
2023/07/25 05:42:38;;;;;;;6.28;2.40;;;;;;;10.78;100.00;100027.34;5078195;28;20025;-92
2023/07/25 05:45:04;;;;;;;5.30;2.45;;;;;;;10.89;100.00;100029.19;5078016;28;20037;-92
2023/07/25 05:47:30;;;;;;;3.03;2.28;;;;;;;11.00;100.00;100039.66;5076474;28;20025;-92
2023/07/25 05:49:56;;;;;;;3.67;1.90;;;;;;;11.00;100.00;100041.41;5077887;28;20028;-92
2023/07/25 05:52:22;;;;;;;5.38;2.47;;;;;;;11.00;100.00;100042.25;5077773;28;20099;-93
2023/07/25 05:54:49;;;;;;;2.45;1.75;;;;;;;11.04;100.00;100042.88;5093836;28;20140;-92
2023/07/25 05:57:14;;;;;;;4.72;3.05;;;;;;;11.23;100.00;100037.31;5076914;28;20091;-93
2023/07/25 05:59:42;;;;;;;12.05;2.85;;;;;;;11.31;100.00;100045.38;5076810;28;20470;-92
2023/07/25 06:02:08;;;;;;;4.95;2.17;;;;;;;11.37;100.00;100039.00;5077668;28;20021;-92
2023/07/25 06:04:33;;;;;;;4.38;2.45;;;;;;;11.39;100.00;100043.13;5078024;28;20020;-93
2023/07/25 06:06:59;;;;;;;7.60;2.17;;;;;;;11.38;100.00;100041.44;5077920;28;20093;-93
2023/07/25 06:09:25;;;;;;;4.90;2.45;;;;;;;11.34;100.00;100038.25;5077947;28;20118;-93
2023/07/25 06:11:51;;;;;;;5.43;2.45;;;;;;;11.43;100.00;100041.97;5078000;28;20107;-92
2023/07/25 06:14:16;;;;;;;4.93;2.30;;;;;;;11.52;100.00;100051.69;5078006;28;20128;-93
2023/07/25 06:16:41;;;;;;;4.47;2.70;;;;;;;11.55;100.00;100048.88;5076713;28;20028;-93
2023/07/25 06:19:07;;;;;;;6.30;2.28;;;;;;;11.62;100.00;100056.25;5076166;28;20031;-93
2023/07/25 06:21:32;;;;;;;3.40;2.30;;;;;;;11.69;100.00;100054.91;5077909;28;20060;-92
2023/07/25 06:23:58;;;;;;;4.85;2.35;;;;;;;11.68;100.00;100050.63;5076557;28;20399;-92
2023/07/25 06:26:23;;;;;;;4.15;2.00;;;;;;;11.75;100.00;100054.47;5077865;28;20477;-92
2023/07/25 06:28:48;;;;;;;3.67;1.67;;;;;;;11.82;100.00;100057.47;5074823;28;20077;-93
2023/07/25 06:31:14;;;;;;;6.65;2.50;;;;;;;11.84;100.00;100059.00;5074689;28;20085;-92
2023/07/25 06:33:39;;;;;;;3.53;1.65;;;;;;;11.91;100.00;100065.44;5072715;28;20067;-93
2023/07/25 06:36:05;;;;;;;1.98;1.63;;;;;;;11.99;100.00;100052.78;5090114;28;20070;-92
2023/07/25 06:38:30;;;;;;;1.70;1.45;;;;;;;12.05;100.00;100053.31;5073170;28;20017;-92
2023/07/25 06:40:56;;;;;;;6.65;2.00;;;;;;;12.11;100.00;100061.47;5073229;28;20021;-93
2023/07/25 06:43:22;;;;;;;2.35;1.55;;;;;;;12.19;100.00;100068.69;5075132;28;20386;-91
2023/07/25 06:45:50;;;;;;;4.55;1.58;;;;;;;12.27;100.00;100069.00;5074469;28;20021;-92
2023/07/25 06:48:15;;;;;;;1.80;1.30;;;;;;;12.31;100.00;100078.19;5073494;28;20032;-92
2023/07/25 06:50:41;;;;;;;3.08;1.48;;;;;;;12.39;100.00;100081.06;5074231;28;20627;-92
2023/07/25 06:53:07;;;;;;;4.22;1.40;;;;;;;12.42;100.00;100075.66;5073975;28;20043;-93
2023/07/25 06:55:32;;;;;;;2.67;1.40;;;;;;;12.58;100.00;100074.56;5074331;28;20024;-94
2023/07/25 06:57:57;;;;;;;8.15;2.80;;;;;;;12.73;100.00;100072.63;5074072;28;20524;-92
2023/07/25 07:00:23;;;;;;;4.15;2.10;;;;;;;12.95;100.00;100071.91;5074162;28;20024;-93
2023/07/25 07:02:48;;;;;;;1.42;0.90;;;;;;;13.36;100.00;100076.63;5073552;28;20379;-92
2023/07/25 07:05:13;;;;;;;5.13;1.85;;;;;;;13.19;100.00;100074.44;5073527;28;20021;-92
2023/07/25 07:07:40;;;;;;;2.22;1.38;;;;;;;13.16;100.00;100072.91;5074047;28;20024;-92
2023/07/25 07:10:06;;;;;;;3.00;1.10;;;;;;;13.04;100.00;100079.81;5087762;28;20467;-93
2023/07/25 07:12:31;;;;;;;1.67;1.02;;;;;;;13.07;100.00;100077.03;5089042;28;20070;-92
2023/07/25 07:14:57;;;;;;;3.10;1.55;;;;;;;13.16;100.00;100082.47;5083541;28;20036;-92
2023/07/25 07:17:22;;;;;;;2.50;1.05;;;;;;;13.15;100.00;100073.03;5074209;28;20016;-93
2023/07/25 07:19:47;;;;;;;2.22;1.30;;;;;;;13.24;100.00;100073.19;5071925;28;20127;-92
2023/07/25 07:22:13;;;;;;;1.55;1.35;;;;;;;13.45;100.00;100077.72;5072977;28;20025;-93
2023/07/25 07:24:40;;;;;;;2.90;1.33;;;;;;;14.68;93.64;100081.19;5072465;28;20055;-91
2023/07/25 07:27:05;;;;;;;4.28;1.38;;;;;;;18.59;69.91;100080.53;5083301;28;20024;-91
2023/07/25 07:29:30;;;;;;;2.40;1.00;;;;;;;20.57;58.94;100087.78;5080076;28;20028;-91
2023/07/25 07:31:56;;;;;;;2.33;1.10;;;;;;;21.18;55.65;100089.13;5076221;28;20025;-92
2023/07/25 07:34:21;;;;;;;2.15;0.70;;;;;;;21.35;53.53;100098.59;5092588;28;20028;-92
2023/07/25 07:36:46;;;;;;;6.38;1.35;;;;;;;22.16;51.24;100096.72;5092636;28;20111;-93
2023/07/25 07:39:12;;;;;;;1.55;0.80;;;;;;;21.93;50.64;100095.88;5073049;28;20038;-93
2023/07/25 07:41:37;;;;;;;2.05;0.70;;;;;;;22.75;48.35;100095.44;5071386;28;20033;-95
2023/07/25 07:44:03;;;;;;;0.70;0.52;;;;;;;21.78;50.00;100093.94;5076191;28;20503;-93
2023/07/25 07:46:32;;;;;;;1.40;0.57;;;;;;;23.01;48.13;100089.84;5093636;28;20031;-94
2023/07/25 07:48:58;;;;;;;1.48;0.80;;;;;;;21.94;49.28;100097.50;5090269;28;20077;-94
2023/07/25 07:51:24;;;;;;;4.70;0.50;;;;;;;22.03;48.90;100096.47;5077481;28;20170;-95
2023/07/25 07:53:50;;;;;;;1.52;0.70;;;;;;;22.94;48.08;100102.03;5089069;28;20433;-94
2023/07/25 07:56:15;;;;;;;1.65;0.60;;;;;;;22.70;47.19;100095.13;5091086;28;20028;-93
2023/07/25 07:58:41;;;;;;;1.95;0.93;;;;;;;23.25;46.40;100101.97;5092841;28;20082;-93
2023/07/25 08:01:15;;;;;;;4.15;1.10;;;;;;;22.93;47.38;100103.03;5079547;28;20129;-95
2023/07/25 08:03:40;;;;;;;3.92;0.65;;;;;;;22.94;45.90;100105.47;5073752;28;20052;-94
2023/07/25 08:06:05;;;;;;;2.63;0.70;;;;;;;22.68;47.16;100110.28;5097208;22;20068;-95
2023/07/25 08:08:31;;;;;;;1.10;0.68;;;;;;;23.41;45.91;100111.50;5049940;28;20029;-94
2023/07/25 08:10:56;;;;;;;1.88;0.85;;;;;;;22.61;46.89;100110.19;5049813;28;20040;-94
2023/07/25 08:13:21;;;;;;;4.72;0.85;;;;;;;22.49;47.37;100115.00;5036792;28;20045;-94
2023/07/25 08:15:47;;;;;;;3.53;0.60;;;;;;;22.16;47.35;100109.88;5053087;28;20025;-94
2023/07/25 08:18:13;;;;;;;2.30;0.70;;;;;;;22.62;46.51;100112.63;5052579;28;20120;-93
2023/07/25 08:20:38;;;;;;;3.47;1.08;;;;;;;23.04;44.75;100108.75;5051426;28;20418;-94
2023/07/25 08:23:03;;;;;;;1.77;0.70;;;;;;;23.06;46.28;100114.63;5050653;28;20041;-94
2023/07/25 08:25:30;;;;;;;3.08;0.90;;;;;;;22.87;44.94;100109.81;5051355;28;20045;-94
2023/07/25 08:27:55;;;;;;;2.53;0.88;;;;;;;23.68;42.64;100112.75;5051434;28;20028;-94
2023/07/25 08:30:21;;;;;;;2.92;0.90;;;;;;;24.64;41.43;100124.09;5052292;28;20112;-94
2023/07/25 08:32:46;;;;;;;0.93;0.80;;;;;;;24.07;42.95;100116.94;5051330;28;20025;-96
2023/07/25 08:35:11;;;;;;;10.52;1.67;;;;;;;24.71;41.66;100117.03;5050979;28;20429;-94
2023/07/25 08:37:37;;;;;;;4.78;1.10;;;;;;;24.42;42.05;100127.69;5051598;28;20060;-94
2023/07/25 08:40:02;;;;;;;2.67;0.90;;;;;;;23.26;43.41;100122.88;5050915;28;20043;-94
2023/07/25 08:42:31;;;;;;;4.30;1.08;;;;;;;22.50;45.82;100124.53;5052571;28;20033;-95
2023/07/25 08:44:59;;;;;;;6.07;1.35;;;;;;;22.16;46.14;100117.75;5052044;28;20028;-95
2023/07/25 08:47:28;;;;;;;2.58;1.20;;;;;;;21.58;48.75;100126.81;5050859;28;20483;-93
2023/07/25 08:49:57;;;;;;;5.68;1.38;;;;;;;21.32;47.38;100119.94;5052092;28;20071;-92
2023/07/25 08:52:27;;;;;;;8.65;1.10;;;;;;;21.11;51.16;100130.13;5050537;28;20112;-93
2023/07/25 08:54:52;;;;;;;3.60;1.23;;;;;;;21.26;49.05;100125.03;5050449;28;20449;-93
2023/07/25 08:57:20;;;;;;;3.25;1.02;;;;;;;21.15;50.58;100128.81;5051856;28;20243;-94
2023/07/25 08:59:49;;;;;;;2.38;0.95;;;;;;;21.34;51.47;100128.47;5051810;28;20028;-93
2023/07/25 09:02:16;;;;;;;4.15;0.85;;;;;;;21.11;50.06;100127.50;5050778;28;20025;-93
2023/07/25 09:04:43;;;;;;;3.97;1.05;;;;;;;21.00;51.45;100133.91;5051764;28;20053;-93
2023/07/25 09:07:09;;;;;;;2.03;1.05;;;;;;;20.70;53.25;100125.69;5051075;28;20052;-93
2023/07/25 09:09:34;;;;;;;2.55;1.00;;;;;;;20.20;52.59;100123.03;5050515;28;20463;-93
2023/07/25 09:12:00;;;;;;;3.35;1.05;;;;;;;20.22;53.21;100123.72;5051795;28;20017;-92
2023/07/25 09:14:25;;;;;;;4.57;1.00;;;;;;;20.25;52.89;100131.25;5050455;28;20470;-93
2023/07/25 09:16:51;;;;;;;3.95;1.27;;;;;;;19.94;55.00;100133.56;5050430;28;20037;-94
2023/07/25 09:19:16;;;;;;;2.47;0.95;;;;;;;19.54;54.87;100138.38;5051591;28;20021;-93
2023/07/25 09:21:46;;;;;;;3.38;1.08;;;;;;;19.54;54.69;100133.16;5050039;28;20036;-93
2023/07/25 09:24:12;;;;;;;2.72;1.17;;;;;;;19.87;53.87;100135.97;5049465;28;20083;-93
2023/07/25 09:26:39;;;;;;;2.88;1.05;;;;;;;19.82;54.44;100138.25;5051626;28;20422;-94
2023/07/25 09:29:05;;;;;;;3.05;1.38;;;;;;;19.36;55.27;100137.59;5050302;28;20136;-93
2023/07/25 09:31:30;;;;;;;4.07;2.28;;;;;;;19.60;54.60;100137.75;5051908;28;20526;-92
2023/07/25 09:33:56;;;;;;;2.08;1.27;;;;;;;19.79;53.25;100135.94;5050375;28;20395;-93
2023/07/25 09:36:22;;;;;;;4.00;1.48;;;;;;;19.80;55.14;100140.19;5050436;28;20487;-93
2023/07/25 09:38:49;;;;;;;4.78;1.60;;;;;;;19.93;54.56;100143.22;5051479;28;20033;-94
2023/07/25 09:41:14;;;;;;;2.90;1.05;;;;;;;20.16;53.71;100138.25;5050213;28;20029;-93
2023/07/25 09:43:39;;;;;;;2.90;1.40;;;;;;;20.14;53.35;100142.00;5052082;28;20028;-93
2023/07/25 09:46:05;;;;;;;2.20;1.33;;;;;;;20.14;52.43;100145.44;5051636;28;20048;-93
2023/07/25 09:48:32;;;;;;;3.97;1.15;;;;;;;20.31;52.99;100138.47;5051630;28;20025;-93
2023/07/25 09:50:58;;;;;;;3.80;1.30;;;;;;;20.63;51.57;100144.81;5051829;28;20029;-93
2023/07/25 09:53:24;;;;;;;14.35;1.77;;;;;;;21.54;49.13;100139.47;5049999;28;20037;-94
2023/07/25 09:55:49;;;;;;;1.42;0.90;;;;;;;21.92;48.77;100139.72;5051615;28;20060;-94
2023/07/25 09:58:15;;;;;;;2.78;1.10;;;;;;;22.38;47.10;100139.88;5065475;28;20502;-95
2023/07/25 10:00:41;;;;;;;2.15;1.15;;;;;;;21.79;48.69;100145.50;5050334;28;20057;-96
2023/07/25 10:03:09;;;;;;;5.00;1.40;;;;;;;22.11;49.41;100140.31;5051682;28;20386;-95
2023/07/25 10:05:35;;;;;;;2.83;1.05;;;;;;;22.22;47.43;100146.03;5055342;28;20056;-95
2023/07/25 10:08:00;;;;;;;4.40;1.40;;;;;;;21.84;46.87;100133.66;5055203;28;20060;-95
2023/07/25 10:10:26;;;;;;;3.17;1.20;;;;;;;21.63;47.80;100142.91;5053096;28;20101;-94
2023/07/25 10:12:53;;;;;;;3.47;1.35;;;;;;;22.30;46.04;100139.09;5034871;28;20030;-95
2023/07/25 10:15:18;;;;;;;2.88;1.70;;;;;;;22.18;46.79;100142.06;5034000;28;20022;-95
2023/07/25 10:17:45;;;;;;;2.22;1.00;;;;;;;21.72;47.84;100141.06;5034989;28;20033;-93
2023/07/25 10:20:20;;;;;;;1.48;0.82;;;;;;;22.60;46.30;100130.38;5034860;28;20495;-95
2023/07/25 10:22:46;;;;;;;4.80;1.40;;;;;;;23.33;43.76;100124.78;5035340;28;20022;-94
2023/07/25 10:25:28;;;;;;;3.78;1.40;;;;;;;23.54;44.12;100131.97;5035226;28;20031;-95
2023/07/25 10:28:01;;;;;;;4.63;1.48;;;;;;;24.07;43.27;100138.03;5034699;28;20021;-96
2023/07/25 10:30:32;;;;;;;1.73;1.15;;;;;;;23.26;44.39;100127.28;5034778;28;20017;-95
2023/07/25 10:33:03;;;;;;;4.82;1.70;;;;;;;22.67;45.45;100127.06;5033365;28;20022;-95
2023/07/25 10:35:53;;;;;;;3.00;1.20;;;;;;;22.42;46.36;100138.53;5034609;28;20060;-96
2023/07/25 10:38:32;;;;;;;4.90;1.83;;;;;;;21.96;46.34;100134.94;5034449;28;20063;-95
2023/07/25 10:41:09;;;;;;;3.30;1.00;;;;;;;22.15;45.53;100142.41;5042838;28;20318;-93
2023/07/25 10:43:46;;;;;;;4.43;1.20;;;;;;;21.36;47.36;100141.41;5054346;28;20037;-93
2023/07/25 10:46:17;;;;;;;1.95;1.40;;;;;;;21.30;48.16;100134.22;5053970;28;20017;-93
2023/07/25 10:48:44;;;;;;;7.30;1.63;;;;;;;20.94;47.92;100137.16;5051585;28;20079;-93
2023/07/25 10:51:10;;;;;;;2.60;1.58;;;;;;;22.11;47.29;100133.22;5053321;28;20021;-94
2023/07/25 10:53:36;;;;;;;2.53;1.42;;;;;;;22.25;45.63;100128.28;5053473;28;20487;-93
2023/07/25 10:56:04;;;;;;;2.75;1.83;;;;;;;23.01;44.79;100127.50;5052084;28;20029;-96
2023/07/25 10:58:33;;;;;;;6.30;1.52;;;;;;;23.89;44.32;100128.66;5053074;28;20017;-96
2023/07/25 11:01:00;;;;;;;2.05;1.10;;;;;;;24.43;42.32;100132.75;5044367;28;20029;-94
2023/07/25 11:03:29;;;;;;;3.92;1.40;;;;;;;24.93;41.10;100140.81;5053073;28;20020;-92
2023/07/25 11:06:07;;;;;;;3.80;1.60;;;;;;;25.10;39.99;100126.34;5049999;28;20033;-92
2023/07/25 11:08:37;;;;;;;3.22;1.60;;;;;;;25.10;39.31;100128.97;5052064;28;20029;-95
2023/07/25 11:11:05;;;;;;;2.70;1.42;;;;;;;25.00;39.13;100125.84;5053963;28;20025;-92
2023/07/25 11:13:32;;;;;;;5.47;1.45;;;;;;;25.40;38.11;100129.63;5051105;28;20033;-94
2023/07/25 11:16:01;;;;;;;1.95;1.08;;;;;;;25.37;39.24;100131.84;5049683;28;20120;-93
2023/07/25 11:18:26;;;;;;;3.25;1.70;;;;;;;25.89;37.89;100127.91;5051836;28;20025;-93